createdAt,value
2018-09-19T00:02:00.738Z,76.30
2018-09-19T00:04:35.647Z,76.10
2018-09-19T00:07:10.522Z,76.70
2018-09-19T00:09:45.591Z,76.70
2018-09-19T00:12:20.558Z,76.80
2018-09-19T00:14:55.344Z,76.90
2018-09-19T00:17:31.046Z,76.90
2018-09-19T00:20:06.483Z,76.80
2018-09-19T00:22:41.519Z,77.20
2018-09-19T00:25:16.498Z,77.20
2018-09-19T00:27:51.212Z,77.40
2018-09-19T00:30:26.073Z,76.90
2018-09-19T00:33:00.873Z,76.70
2018-09-19T00:35:35.897Z,77.60
2018-09-19T00:38:10.674Z,77.20
2018-09-19T00:40:45.484Z,77.00
2018-09-19T00:43:20.488Z,77.30
2018-09-19T00:45:55.429Z,77.20
2018-09-19T00:48:30.294Z,76.90
2018-09-19T00:51:05.424Z,77.40
2018-09-19T00:53:41.019Z,77.40
2018-09-19T00:56:16.482Z,77.10
2018-09-19T00:58:51.116Z,77.60
2018-09-19T01:01:25.973Z,77.90
2018-09-19T01:04:00.884Z,77.30
2018-09-19T01:06:35.884Z,77.40
2018-09-19T01:09:10.953Z,77.30
2018-09-19T01:11:45.715Z,77.20
2018-09-19T01:14:20.543Z,76.80
2018-09-19T01:16:55.354Z,77.00
2018-09-19T01:19:30.208Z,76.40
2018-09-19T01:22:05.141Z,76.50
2018-09-19T01:24:40.401Z,76.80
2018-09-19T01:27:16.091Z,77.30
2018-09-19T01:29:51.137Z,77.40
2018-09-19T01:32:26.316Z,76.90
2018-09-19T01:35:02.715Z,77.10
2018-09-19T01:37:38.176Z,77.20
2018-09-19T01:40:12.881Z,77.40
2018-09-19T01:42:47.875Z,77.70
2018-09-19T01:45:22.912Z,77.40
2018-09-19T01:47:57.802Z,77.90
2018-09-19T01:50:32.659Z,77.90
2018-09-19T01:53:07.499Z,79.70
2018-09-19T01:55:42.249Z,78.70
2018-09-19T01:58:17.151Z,78.60
2018-09-19T02:00:58.816Z,78.40
2018-09-19T02:03:33.998Z,78.80
2018-09-19T02:06:08.964Z,79.40
2018-09-19T02:08:44.205Z,78.70
2018-09-19T02:11:19.551Z,78.40
2018-09-19T02:13:54.632Z,78.40
2018-09-19T02:16:29.678Z,77.90
2018-09-19T02:19:04.690Z,78.10
2018-09-19T02:21:39.733Z,77.90
2018-09-19T02:24:14.882Z,78.40
2018-09-19T02:26:49.811Z,78.50
2018-09-19T02:29:24.938Z,78.30
2018-09-19T02:31:59.986Z,78.20
2018-09-19T02:34:34.814Z,78.30
2018-09-19T02:37:09.704Z,78.30
2018-09-19T02:39:44.632Z,78.60
2018-09-19T02:42:19.653Z,78.50
2018-09-19T02:44:54.382Z,78.60
2018-09-19T02:47:29.109Z,78.30
2018-09-19T02:50:04.035Z,78.20
2018-09-19T02:52:38.833Z,78.10
2018-09-19T02:55:13.601Z,78.20
2018-09-19T02:57:48.514Z,78.00
2018-09-19T03:00:23.346Z,78.30
2018-09-19T03:02:58.687Z,78.50
2018-09-19T03:05:33.610Z,78.20
2018-09-19T03:08:08.832Z,77.90
2018-09-19T03:10:44.348Z,77.90
2018-09-19T03:13:18.981Z,77.90
2018-09-19T03:15:53.810Z,77.70
2018-09-19T03:18:28.576Z,78.10
2018-09-19T03:21:03.408Z,77.50
2018-09-19T03:23:38.234Z,77.90
2018-09-19T03:26:12.976Z,78.60
2018-09-19T03:28:47.796Z,78.20
2018-09-19T03:31:22.812Z,77.30
2018-09-19T03:33:57.655Z,78.10
2018-09-19T03:36:32.390Z,77.70
2018-09-19T03:39:09.527Z,78.40
2018-09-19T03:41:44.268Z,78.40
2018-09-19T03:44:19.225Z,78.10
2018-09-19T03:46:54.138Z,78.80
2018-09-19T03:49:29.464Z,78.60
2018-09-19T03:52:04.401Z,78.60
2018-09-19T03:54:39.445Z,78.60
2018-09-19T03:57:14.474Z,78.60
2018-09-19T03:59:49.883Z,79.40
2018-09-19T04:02:24.559Z,78.90
2018-09-19T04:04:59.428Z,79.70
2018-09-19T04:07:34.506Z,79.90
2018-09-19T04:10:09.269Z,79.50
2018-09-19T04:12:44.164Z,79.40
2018-09-19T04:15:19.015Z,79.50
2018-09-19T04:17:54.346Z,79.50
2018-09-19T04:20:29.305Z,79.70
2018-09-19T04:23:04.144Z,79.80
2018-09-19T04:25:39.032Z,80.20
2018-09-19T04:28:13.701Z,79.40
2018-09-19T04:30:48.607Z,79.40
2018-09-19T04:33:23.631Z,79.90
2018-09-19T04:35:58.391Z,79.50
2018-09-19T04:38:33.373Z,79.40
2018-09-19T04:41:08.231Z,79.40
2018-09-19T04:43:43.039Z,79.20
2018-09-19T04:46:17.982Z,79.40
2018-09-19T04:48:52.999Z,79.20
2018-09-19T04:51:27.773Z,79.30
2018-09-19T04:54:02.861Z,79.20
2018-09-19T04:56:38.287Z,79.30
2018-09-19T04:59:13.141Z,79.20
2018-09-19T05:01:48.305Z,79.30
2018-09-19T05:04:23.034Z,79.90
2018-09-19T05:06:58.009Z,80.00
2018-09-19T05:09:32.908Z,79.60
2018-09-19T05:12:07.830Z,79.90
2018-09-19T05:14:42.555Z,79.60
2018-09-19T05:17:17.299Z,79.50
2018-09-19T05:19:52.042Z,79.70
2018-09-19T05:22:26.837Z,79.80
2018-09-19T05:25:01.594Z,80.00
2018-09-19T05:27:36.222Z,79.90
2018-09-19T05:30:10.925Z,80.00
2018-09-19T05:32:45.759Z,80.00
2018-09-19T05:35:21.577Z,80.00
2018-09-19T05:37:56.504Z,80.60
2018-09-19T05:40:31.279Z,80.50
2018-09-19T05:43:06.071Z,80.40
2018-09-19T05:45:40.869Z,80.30
2018-09-19T05:48:15.909Z,80.30
2018-09-19T05:50:51.380Z,80.50
2018-09-19T05:53:26.045Z,80.00
2018-09-19T05:56:00.887Z,80.00
2018-09-19T05:58:35.881Z,80.20
2018-09-19T06:01:10.654Z,80.40
2018-09-19T06:03:45.434Z,80.60
2018-09-19T06:06:20.222Z,80.60
2018-09-19T06:08:55.283Z,80.70
2018-09-19T06:11:29.900Z,80.60
2018-09-19T06:14:04.770Z,80.70
2018-09-19T06:16:39.644Z,81.00
2018-09-19T06:19:14.441Z,81.60
2018-09-19T06:21:49.768Z,81.80
2018-09-19T06:24:24.394Z,81.40
2018-09-19T06:26:59.813Z,82.00
2018-09-19T06:29:34.641Z,81.50
2018-09-19T06:32:09.358Z,81.60
2018-09-19T06:34:44.393Z,81.90
2018-09-19T06:37:19.449Z,81.50
2018-09-19T06:39:54.233Z,81.60
2018-09-19T06:42:29.396Z,81.10
2018-09-19T06:45:04.288Z,81.00
2018-09-19T06:47:38.969Z,81.30
2018-09-19T06:50:13.929Z,81.20
2018-09-19T06:52:48.738Z,80.20
2018-09-19T06:55:23.613Z,79.40
2018-09-19T06:57:58.843Z,79.00
2018-09-19T07:00:33.663Z,79.30
2018-09-19T07:03:08.764Z,78.80
2018-09-19T07:05:43.636Z,78.30
2018-09-19T07:08:18.624Z,76.60
2018-09-19T07:10:53.460Z,76.40
2018-09-19T07:13:28.201Z,76.30
2018-09-19T07:16:03.041Z,76.30
2018-09-19T07:18:37.658Z,76.20
2018-09-19T07:21:12.674Z,76.10
2018-09-19T07:23:47.622Z,75.90
2018-09-19T07:26:22.599Z,76.20
2018-09-19T07:28:58.130Z,75.50
2018-09-19T07:31:32.749Z,74.80
2018-09-19T07:34:07.547Z,75.10
2018-09-19T07:36:42.391Z,73.50
2018-09-19T07:39:17.408Z,73.30
2018-09-19T07:41:53.239Z,73.30
2018-09-19T07:44:28.559Z,73.10
2018-09-19T07:47:04.156Z,73.20
2018-09-19T07:49:39.593Z,73.50
2018-09-19T07:52:14.939Z,73.80
2018-09-19T07:54:50.308Z,72.60
2018-09-19T07:57:25.656Z,72.00
2018-09-19T08:00:01.179Z,72.60
2018-09-19T08:02:36.652Z,72.40
2018-09-19T08:05:12.153Z,70.80
2018-09-19T08:07:47.925Z,71.30
2018-09-19T08:10:23.574Z,69.80
2018-09-19T08:13:00.224Z,66.00
2018-09-19T08:15:35.505Z,65.80
2018-09-19T08:18:10.879Z,64.00
2018-09-19T08:20:46.258Z,62.50
2018-09-19T08:23:22.139Z,59.90
2018-09-19T08:25:57.443Z,59.80
2018-09-19T08:28:32.862Z,57.90
2018-09-19T08:31:08.675Z,57.20
2018-09-19T08:33:43.918Z,55.60
2018-09-19T08:36:19.744Z,55.70
2018-09-19T08:38:54.997Z,54.10
2018-09-19T08:41:30.466Z,53.90
2018-09-19T08:44:12.664Z,53.30
2018-09-19T08:46:48.804Z,52.10
2018-09-19T08:49:24.070Z,51.30
2018-09-19T08:51:59.291Z,49.60
2018-09-19T08:54:34.679Z,50.20
2018-09-19T08:57:10.254Z,47.20
2018-09-19T08:59:45.530Z,46.20
2018-09-19T09:02:20.641Z,45.20
2018-09-19T09:04:55.670Z,43.60
2018-09-19T09:07:30.845Z,43.50
2018-09-19T09:10:06.289Z,43.60
2018-09-19T09:12:41.273Z,42.10
2018-09-19T09:15:16.420Z,41.40
2018-09-19T09:17:51.477Z,39.90
2018-09-19T09:20:26.640Z,39.60
2018-09-19T09:23:01.749Z,39.50
2018-09-19T09:25:36.661Z,38.50
2018-09-19T09:28:12.052Z,38.90
2018-09-19T09:30:47.853Z,37.30
2018-09-19T09:33:22.875Z,37.20
2018-09-19T09:35:58.019Z,36.60
2018-09-19T09:38:33.245Z,35.80
2018-09-19T09:41:08.794Z,35.60
2018-09-19T09:43:43.744Z,34.40
2018-09-19T09:46:18.921Z,35.40
2018-09-19T09:48:54.327Z,34.10
2018-09-19T09:51:30.046Z,35.10
2018-09-19T09:54:05.095Z,34.90
2018-09-19T09:56:40.449Z,34.80
2018-09-19T09:59:15.686Z,33.40
2018-09-19T10:01:51.014Z,35.20
2018-09-19T10:04:26.178Z,34.10
2018-09-19T10:07:01.171Z,33.60
2018-09-19T10:09:36.225Z,34.50
2018-09-19T10:12:11.354Z,34.10
2018-09-19T10:14:46.366Z,33.30
2018-09-19T10:17:22.120Z,32.60
2018-09-19T10:19:57.162Z,33.90
2018-09-19T10:22:32.297Z,32.10
2018-09-19T10:25:07.321Z,31.90
2018-09-19T10:27:42.506Z,30.00
2018-09-19T10:30:17.741Z,31.50
2018-09-19T10:32:53.754Z,31.80
2018-09-19T10:35:28.978Z,33.70
2018-09-19T10:38:04.231Z,32.50
2018-09-19T10:40:39.266Z,32.70
2018-09-19T10:43:14.420Z,31.50
2018-09-19T10:45:49.589Z,34.10
2018-09-19T10:48:25.025Z,33.00
2018-09-19T10:51:00.721Z,31.30
2018-09-19T10:53:35.674Z,33.60
2018-09-19T10:56:10.696Z,33.30
2018-09-19T10:58:45.835Z,34.20
2018-09-19T11:01:20.981Z,33.50
2018-09-19T11:03:56.138Z,32.90
2018-09-19T11:06:31.359Z,33.90
2018-09-19T11:09:09.376Z,32.80
2018-09-19T11:11:45.099Z,31.60
2018-09-19T11:14:20.404Z,32.60
2018-09-19T11:16:55.473Z,35.20
2018-09-19T11:19:30.631Z,35.00
2018-09-19T11:22:05.690Z,32.10
2018-09-19T11:24:40.833Z,32.30
2018-09-19T11:27:16.227Z,31.80
2018-09-19T11:29:51.182Z,31.70
2018-09-19T11:32:26.601Z,31.50
2018-09-19T11:35:01.781Z,31.30
2018-09-19T11:37:36.789Z,31.30
2018-09-19T11:40:11.942Z,32.40
2018-09-19T11:42:47.553Z,32.60
2018-09-19T11:45:23.606Z,33.30
2018-09-19T11:47:58.714Z,35.00
2018-09-19T11:50:33.887Z,36.50
2018-09-19T11:53:13.291Z,36.60
2018-09-19T11:55:48.207Z,38.00
2018-09-19T11:58:23.810Z,38.00
2018-09-19T12:00:59.385Z,38.30
2018-09-19T12:03:34.490Z,38.90
2018-09-19T12:06:09.478Z,39.90
2018-09-19T12:08:44.637Z,37.80
2018-09-19T12:11:19.873Z,38.20
2018-09-19T12:13:54.934Z,37.80
2018-09-19T12:16:30.022Z,38.40
2018-09-19T12:19:05.588Z,40.50
2018-09-19T12:21:40.824Z,42.10
2018-09-19T12:24:16.255Z,42.00
2018-09-19T12:26:51.483Z,42.40
2018-09-19T12:29:27.340Z,42.80
2018-09-19T12:32:02.458Z,43.80
2018-09-19T12:34:37.727Z,44.20
2018-09-19T12:37:13.199Z,44.80
2018-09-19T12:39:48.595Z,45.20
2018-09-19T12:42:24.753Z,45.80
2018-09-19T12:45:00.162Z,46.30
2018-09-19T12:47:35.887Z,46.50
2018-09-19T12:50:12.120Z,46.90
2018-09-19T12:52:47.403Z,46.80
2018-09-19T12:55:22.756Z,47.20
2018-09-19T12:57:58.138Z,47.60
2018-09-19T13:00:33.575Z,47.10
2018-09-19T13:03:08.886Z,46.60
2018-09-19T13:05:44.354Z,46.40
2018-09-19T13:08:19.745Z,46.60
2018-09-19T13:10:55.256Z,46.00
2018-09-19T13:13:30.769Z,46.20
2018-09-19T13:16:05.874Z,46.00
2018-09-19T13:18:40.912Z,45.10
2018-09-19T13:21:16.078Z,45.60
2018-09-19T13:23:51.138Z,45.50
2018-09-19T13:26:26.150Z,44.40
2018-09-19T13:29:01.363Z,42.30
2018-09-19T13:31:36.706Z,42.90
2018-09-19T13:34:12.366Z,42.80
2018-09-19T13:36:48.204Z,42.20
2018-09-19T13:39:23.274Z,40.50
2018-09-19T13:41:58.388Z,38.20
2018-09-19T13:44:34.005Z,37.20
2018-09-19T13:47:09.124Z,36.60
2018-09-19T13:49:47.823Z,35.70
2018-09-19T13:52:23.167Z,34.40
2018-09-19T13:54:58.227Z,34.20
2018-09-19T13:57:33.654Z,33.00
2018-09-19T14:00:09.090Z,31.50
2018-09-19T14:02:44.815Z,30.80
2018-09-19T14:05:19.939Z,30.40
2018-09-19T14:07:54.996Z,32.60
2018-09-19T14:10:30.015Z,30.60
2018-09-19T14:13:06.338Z,30.70
2018-09-19T14:15:41.258Z,30.90
2018-09-19T14:18:16.385Z,31.20
2018-09-19T14:20:52.442Z,31.80
2018-09-19T14:23:27.310Z,30.80
2018-09-19T14:26:02.484Z,30.60
2018-09-19T14:28:37.925Z,31.80
2018-09-19T14:31:13.279Z,30.00
2018-09-19T14:33:48.234Z,31.70
2018-09-19T14:36:23.343Z,30.90
2018-09-19T14:38:58.781Z,31.10
2018-09-19T14:41:33.989Z,30.50
2018-09-19T14:44:09.762Z,30.20
2018-09-19T14:46:45.008Z,30.80
2018-09-19T14:49:20.091Z,30.60
2018-09-19T14:51:55.029Z,30.80
2018-09-19T14:54:30.146Z,32.50
2018-09-19T14:57:05.786Z,33.90
2018-09-19T14:59:41.145Z,35.20
2018-09-19T15:02:16.382Z,35.80
2018-09-19T15:04:51.603Z,35.90
2018-09-19T15:07:27.125Z,33.40
2018-09-19T15:10:02.175Z,32.80
2018-09-19T15:12:37.258Z,33.30
2018-09-19T15:15:12.527Z,33.30
2018-09-19T15:17:47.636Z,34.80
2018-09-19T15:20:23.518Z,35.60
2018-09-19T15:22:59.089Z,36.70
2018-09-19T15:25:34.038Z,38.40
2018-09-19T15:28:09.684Z,40.20
2018-09-19T15:30:45.055Z,40.60
2018-09-19T15:33:20.196Z,42.00
2018-09-19T15:35:55.375Z,42.50
2018-09-19T15:38:31.432Z,41.30
2018-09-19T15:41:07.305Z,42.10
2018-09-19T15:43:43.065Z,42.40
2018-09-19T15:46:18.438Z,44.00
2018-09-19T15:48:53.856Z,45.00
2018-09-19T15:51:29.499Z,45.40
2018-09-19T15:54:05.032Z,47.00
2018-09-19T15:56:40.596Z,47.20
2018-09-19T15:59:15.833Z,48.50
2018-09-19T16:01:51.449Z,49.00
2018-09-19T16:04:26.803Z,49.60
2018-09-19T16:07:02.656Z,50.10
2018-09-19T16:09:38.071Z,51.20
2018-09-19T16:12:13.695Z,51.40
2018-09-19T16:14:49.054Z,50.90
2018-09-19T16:17:24.357Z,49.40
2018-09-19T16:19:59.945Z,47.90
2018-09-19T16:22:35.165Z,47.70
2018-09-19T16:25:10.444Z,46.50
2018-09-19T16:27:46.135Z,46.20
2018-09-19T16:30:21.267Z,45.70
2018-09-19T16:32:56.761Z,45.20
2018-09-19T16:35:31.892Z,44.30
2018-09-19T16:38:07.976Z,45.80
2018-09-19T16:40:45.313Z,44.80
2018-09-19T16:43:20.886Z,46.00
2018-09-19T16:45:56.458Z,46.80
2018-09-19T16:48:31.828Z,45.00
2018-09-19T16:51:07.272Z,44.50
2018-09-19T16:53:42.342Z,44.20
2018-09-19T16:56:17.446Z,44.80
2018-09-19T16:58:52.776Z,44.20
2018-09-19T17:01:28.860Z,44.70
2018-09-19T17:04:04.377Z,46.30
2018-09-19T17:06:40.399Z,46.50
2018-09-19T17:09:17.009Z,47.00
2018-09-19T17:11:52.487Z,48.60
2018-09-19T17:14:27.894Z,48.40
2018-09-19T17:17:03.495Z,50.90
2018-09-19T17:19:39.018Z,50.20
2018-09-19T17:22:14.668Z,50.30
2018-09-19T17:24:50.464Z,51.30
2018-09-19T17:27:25.709Z,52.30
2018-09-19T17:30:01.291Z,54.40
2018-09-19T17:32:36.650Z,53.10
2018-09-19T17:35:12.748Z,52.70
2018-09-19T17:37:48.245Z,53.70
2018-09-19T17:40:24.282Z,54.20
2018-09-19T17:43:00.306Z,54.20
2018-09-19T17:45:35.562Z,55.20
2018-09-19T17:48:10.809Z,55.20
2018-09-19T17:50:46.703Z,55.30
2018-09-19T17:53:21.976Z,55.60
2018-09-19T17:55:57.325Z,56.10
2018-09-19T17:58:32.791Z,56.60
2018-09-19T18:01:08.266Z,57.00
2018-09-19T18:03:43.669Z,57.40
2018-09-19T18:06:19.735Z,57.80
2018-09-19T18:08:55.191Z,58.20
2018-09-19T18:11:30.574Z,58.30
2018-09-19T18:14:06.896Z,58.50
2018-09-19T18:16:42.293Z,58.70
2018-09-19T18:19:17.606Z,58.70
2018-09-19T18:21:53.610Z,58.80
2018-09-19T18:24:28.867Z,59.00
2018-09-19T18:27:04.827Z,59.20
2018-09-19T18:29:40.415Z,59.40
2018-09-19T18:32:16.051Z,59.60
2018-09-19T18:34:51.859Z,59.70
2018-09-19T18:37:28.078Z,59.60
2018-09-19T18:40:03.541Z,59.80
2018-09-19T18:42:39.419Z,59.90
2018-09-19T18:45:15.666Z,60.10
2018-09-19T18:47:51.283Z,60.20
2018-09-19T18:50:26.767Z,60.70
2018-09-19T18:53:02.025Z,61.20
2018-09-19T18:55:37.564Z,61.10
2018-09-19T18:58:12.935Z,61.30
2018-09-19T19:00:48.913Z,61.20
2018-09-19T19:03:24.238Z,61.70
2018-09-19T19:05:59.618Z,62.20
2018-09-19T19:08:35.146Z,62.70
2018-09-19T19:11:11.234Z,62.60
2018-09-19T19:13:46.712Z,62.70
2018-09-19T19:16:22.252Z,62.40
2018-09-19T19:18:57.759Z,62.90
2018-09-19T19:21:33.349Z,62.70
2018-09-19T19:24:08.616Z,63.00
2018-09-19T19:26:44.133Z,63.00
2018-09-19T19:29:19.687Z,63.00
2018-09-19T19:31:55.809Z,64.00
2018-09-19T19:34:31.380Z,64.20
2018-09-19T19:37:06.781Z,64.70
2018-09-19T19:39:42.777Z,64.80
2018-09-19T19:42:18.428Z,65.60
2018-09-19T19:44:53.794Z,66.00
2018-09-19T19:47:29.592Z,65.70
2018-09-19T19:50:05.399Z,65.50
2018-09-19T19:52:41.090Z,65.80
2018-09-19T19:55:16.486Z,66.40
2018-09-19T19:57:51.987Z,66.90
2018-09-19T20:00:27.490Z,66.30
2018-09-19T20:03:02.968Z,66.40
2018-09-19T20:05:38.562Z,66.30
2018-09-19T20:08:14.138Z,66.80
2018-09-19T20:10:49.830Z,67.00
2018-09-19T20:13:25.294Z,67.20
2018-09-19T20:16:00.897Z,67.20
2018-09-19T20:18:36.300Z,67.30
2018-09-19T20:21:11.558Z,69.00
2018-09-19T20:23:46.896Z,68.10
2018-09-19T20:26:22.457Z,68.30
2018-09-19T20:28:58.154Z,68.30
2018-09-19T20:31:34.402Z,68.60
2018-09-19T20:34:10.265Z,68.80
2018-09-19T20:36:45.889Z,69.30
2018-09-19T20:39:28.201Z,69.90
2018-09-19T20:42:04.179Z,69.70
2018-09-19T20:44:39.631Z,70.30
2018-09-19T20:47:17.333Z,69.90
2018-09-19T20:49:53.355Z,69.40
2018-09-19T20:52:28.611Z,69.60
2018-09-19T20:55:04.584Z,69.80
2018-09-19T20:57:40.713Z,69.80
2018-09-19T21:00:16.068Z,70.00
2018-09-19T21:02:51.477Z,70.00
2018-09-19T21:05:26.754Z,71.10
2018-09-19T21:08:02.043Z,71.10
2018-09-19T21:10:37.372Z,70.30
2018-09-19T21:13:12.672Z,71.20
2018-09-19T21:15:48.279Z,71.10
2018-09-19T21:18:23.886Z,70.40
2018-09-19T21:21:00.034Z,70.70
2018-09-19T21:23:34.696Z,70.40
2018-09-19T21:26:09.675Z,71.30
2018-09-19T21:28:45.047Z,70.70
2018-09-19T21:31:20.014Z,71.50
2018-09-19T21:33:55.528Z,71.60
2018-09-19T21:36:31.556Z,71.80
2018-09-19T21:39:08.941Z,72.30
2018-09-19T21:41:43.762Z,72.20
2018-09-19T21:44:18.908Z,72.10
2018-09-19T21:46:53.855Z,71.90
2018-09-19T21:49:28.687Z,73.00
2018-09-19T21:52:03.709Z,72.00
2018-09-19T21:54:38.830Z,73.50
2018-09-19T21:57:14.318Z,73.20
2018-09-19T21:59:49.194Z,73.80
2018-09-19T22:02:24.041Z,74.20
2018-09-19T22:04:59.200Z,74.40
2018-09-19T22:07:34.220Z,74.30
2018-09-19T22:10:09.555Z,74.00
2018-09-19T22:12:44.907Z,74.70
2018-09-19T22:15:20.207Z,75.40
2018-09-19T22:17:55.145Z,74.50
2018-09-19T22:20:30.311Z,75.10
2018-09-19T22:23:05.716Z,75.20
2018-09-19T22:25:40.437Z,75.30
2018-09-19T22:28:15.182Z,75.20
2018-09-19T22:30:56.807Z,75.20
2018-09-19T22:33:32.060Z,75.40
2018-09-19T22:36:06.898Z,75.40
2018-09-19T22:38:42.681Z,75.80
2018-09-19T22:41:19.100Z,75.50
2018-09-19T22:43:54.038Z,75.50
2018-09-19T22:46:30.297Z,75.50
2018-09-19T22:49:05.185Z,75.70
2018-09-19T22:51:39.849Z,76.40
2018-09-19T22:54:15.173Z,76.20
2018-09-19T22:56:50.078Z,75.70
2018-09-19T22:59:24.917Z,75.30
2018-09-19T23:02:00.558Z,75.50
2018-09-19T23:04:35.637Z,75.50
2018-09-19T23:07:11.145Z,75.10
2018-09-19T23:09:46.036Z,74.70
2018-09-19T23:12:21.018Z,74.90
2018-09-19T23:14:55.884Z,75.10
2018-09-19T23:17:30.715Z,75.30
2018-09-19T23:20:06.598Z,75.70
2018-09-19T23:22:41.387Z,75.50
2018-09-19T23:25:16.380Z,75.30
2018-09-19T23:27:51.356Z,75.30
2018-09-19T23:30:26.303Z,75.70
2018-09-19T23:33:01.217Z,75.60
2018-09-19T23:35:35.989Z,76.50
2018-09-19T23:38:10.889Z,76.30
2018-09-19T23:40:45.622Z,76.70
2018-09-19T23:43:20.698Z,77.70
2018-09-19T23:45:55.486Z,77.40
2018-09-19T23:48:30.358Z,77.20
2018-09-19T23:51:05.314Z,77.10
2018-09-19T23:53:40.074Z,76.90
2018-09-19T23:56:15.473Z,77.20
2018-09-19T23:58:50.602Z,77.50
